Time;durP1;ratioP1;P1;durP2;ratioP2;P2;SDS_P1;SDS_P2;PMS_P1;PMS_P2;Temp;Humidity;BMP_temperature;BMP_pressure;BME280_temperature;BME280_humidity;BME280_pressure;Samples;Min_cycle;Max_cycle;Signal;HPM_P1;HPM_P2
2022/12/09 00:01:21;;;;;;;44.55;28.10;;;;;;;;;;5032632;28;20025;-62
2022/12/09 00:03:47;;;;;;;44.33;27.17;;;;;;;;;;5047426;28;20080;-62
2022/12/09 00:06:17;;;;;;;41.55;26.30;;;;;;;;;;5031036;28;20025;-61
2022/12/09 00:08:43;;;;;;;43.63;27.38;;;;;;;;;;5031221;28;20029;-62
2022/12/09 00:11:09;;;;;;;46.80;28.73;;;;;;;;;;5031674;28;20108;-62
2022/12/09 00:13:36;;;;;;;48.20;27.80;;;;;;;;;;5031125;28;20489;-62
2022/12/09 00:16:09;;;;;;;47.08;28.10;;;;;;;;;;5031608;28;20240;-60
2022/12/09 00:18:35;;;;;;;45.80;28.13;;;;;;;;;;5033017;28;20032;-62
2022/12/09 00:21:15;;;;;;;45.55;28.75;;;;;;;;;;5031619;28;20030;-62
2022/12/09 00:23:41;;;;;;;48.70;27.67;;;;;;;;;;5031365;28;20025;-62
2022/12/09 00:26:07;;;;;;;44.85;27.08;;;;;;;;;;5032755;28;20107;-63
2022/12/09 00:28:33;;;;;;;46.05;27.17;;;;;;;;;;5032721;28;20041;-62
2022/12/09 00:31:00;;;;;;;47.75;26.52;;;;;;;;;;5032785;28;20026;-63
2022/12/09 00:33:26;;;;;;;45.67;27.50;;;;;;;;;;5032488;28;20021;-62
2022/12/09 00:35:52;;;;;;;43.67;27.30;;;;;;;;;;5031360;28;20116;-63
2022/12/09 00:38:18;;;;;;;47.17;27.13;;;;;;;;;;5032536;28;20029;-61
2022/12/09 00:40:44;;;;;;;49.78;28.73;;;;;;;;;;5032571;28;20027;-61
2022/12/09 00:43:10;;;;;;;53.47;28.73;;;;;;;;;;5032487;28;20404;-63
2022/12/09 00:45:36;;;;;;;49.55;29.55;;;;;;;;;;5031190;28;20121;-63
2022/12/09 00:48:02;;;;;;;51.67;30.35;;;;;;;;;;5031191;28;20116;-62
2022/12/09 00:50:28;;;;;;;55.00;29.42;;;;;;;;;;5031129;28;20060;-63
2022/12/09 00:52:54;;;;;;;55.80;31.67;;;;;;;;;;5031108;28;20061;-63
2022/12/09 00:55:20;;;;;;;51.90;30.90;;;;;;;;;;5031776;28;20051;-63
2022/12/09 00:57:46;;;;;;;52.33;30.13;;;;;;;;;;5030951;28;20034;-61
2022/12/09 01:00:12;;;;;;;56.85;33.67;;;;;;;;;;5031024;28;20583;-63
2022/12/09 01:02:38;;;;;;;55.80;32.63;;;;;;;;;;5031239;28;20025;-63
2022/12/09 01:05:04;;;;;;;50.13;31.10;;;;;;;;;;5030730;28;20090;-63
2022/12/09 01:07:30;;;;;;;53.95;30.25;;;;;;;;;;5032383;28;20432;-63
2022/12/09 01:09:56;;;;;;;59.10;32.90;;;;;;;;;;5032313;28;20026;-63
2022/12/09 01:12:22;;;;;;;53.17;32.83;;;;;;;;;;5031119;28;20021;-63
2022/12/09 01:14:48;;;;;;;51.15;31.25;;;;;;;;;;5032137;28;20033;-63
2022/12/09 01:17:14;;;;;;;53.40;29.55;;;;;;;;;;5031077;28;20030;-63
2022/12/09 01:19:40;;;;;;;54.72;32.28;;;;;;;;;;5032458;28;20025;-63
2022/12/09 01:22:06;;;;;;;54.38;31.50;;;;;;;;;;5030853;28;20055;-63
2022/12/09 01:24:32;;;;;;;52.63;30.67;;;;;;;;;;5031687;28;20092;-63
2022/12/09 01:26:58;;;;;;;54.92;31.48;;;;;;;;;;5031967;28;20026;-63
2022/12/09 01:29:24;;;;;;;55.35;31.80;;;;;;;;;;5032130;28;20025;-63
2022/12/09 01:31:51;;;;;;;49.00;31.33;;;;;;;;;;5031948;28;20025;-63
2022/12/09 01:34:17;;;;;;;47.10;30.27;;;;;;;;;;5030463;28;20025;-62
2022/12/09 01:36:43;;;;;;;52.72;31.52;;;;;;;;;;5030626;28;20485;-63
2022/12/09 01:39:09;;;;;;;51.20;32.55;;;;;;;;;;5030403;28;20045;-63
2022/12/09 01:41:35;;;;;;;53.00;32.28;;;;;;;;;;5031801;28;20108;-63
2022/12/09 01:44:19;;;;;;;54.72;31.67;;;;;;;;;;5030240;28;20132;-63
2022/12/09 01:46:45;;;;;;;48.22;29.45;;;;;;;;;;5030769;28;20025;-63
2022/12/09 01:49:16;;;;;;;49.00;29.63;;;;;;;;;;5031916;28;20029;-63
2022/12/09 01:51:45;;;;;;;58.22;32.25;;;;;;;;;;5030483;28;20042;-63
2022/12/09 01:54:11;;;;;;;48.60;28.50;;;;;;;;;;5030157;28;20017;-61
2022/12/09 01:56:39;;;;;;;46.95;31.20;;;;;;;;;;5030149;28;20028;-61
2022/12/09 01:59:07;;;;;;;49.63;29.17;;;;;;;;;;5030446;28;20441;-57
2022/12/09 02:01:33;;;;;;;51.80;31.98;;;;;;;;;;5030406;28;20412;-62
2022/12/09 02:03:59;;;;;;;48.40;31.15;;;;;;;;;;5030001;28;20029;-60
2022/12/09 02:06:25;;;;;;;45.30;29.67;;;;;;;;;;5030187;28;20026;-61
2022/12/09 02:08:51;;;;;;;49.17;30.80;;;;;;;;;;5034613;28;20112;-62
2022/12/09 02:11:37;;;;;;;42.95;28.30;;;;;;;;;;5034197;28;20021;-61
2022/12/09 02:14:07;;;;;;;49.70;29.73;;;;;;;;;;5033831;28;20022;-61
2022/12/09 02:17:00;;;;;;;47.53;28.80;;;;;;;;;;5033951;28;20116;-61
2022/12/09 02:19:33;;;;;;;44.30;27.67;;;;;;;;;;5031261;28;20033;-62
2022/12/09 02:21:59;;;;;;;48.65;29.38;;;;;;;;;;5034032;28;20029;-62
2022/12/09 02:24:31;;;;;;;46.63;28.25;;;;;;;;;;5034936;28;20032;-62
2022/12/09 02:26:57;;;;;;;42.45;28.95;;;;;;;;;;5033878;28;20060;-61
2022/12/09 02:29:27;;;;;;;43.92;26.63;;;;;;;;;;5035108;28;20032;-62
2022/12/09 02:32:13;;;;;;;44.92;27.00;;;;;;;;;;5033882;28;20021;-60
2022/12/09 02:34:45;;;;;;;41.55;27.08;;;;;;;;;;5034841;28;20477;-62
2022/12/09 02:37:30;;;;;;;42.22;28.23;;;;;;;;;;5034913;28;20029;-61
2022/12/09 02:39:59;;;;;;;48.08;28.60;;;;;;;;;;5033711;28;20116;-61
2022/12/09 02:42:26;;;;;;;39.00;24.52;;;;;;;;;;5033887;28;20026;-62
2022/12/09 02:44:52;;;;;;;42.10;26.30;;;;;;;;;;5033577;28;20037;-62
2022/12/09 02:47:20;;;;;;;41.70;26.40;;;;;;;;;;5033861;28;20025;-61
2022/12/09 02:49:48;;;;;;;42.53;26.77;;;;;;;;;;5033958;28;20036;-62
2022/12/09 02:52:14;;;;;;;43.40;27.37;;;;;;;;;;5033486;28;20684;-62
2022/12/09 02:54:42;;;;;;;46.55;28.70;;;;;;;;;;5033304;28;20037;-62
2022/12/09 02:57:11;;;;;;;38.33;24.02;;;;;;;;;;5033247;28;20033;-62
2022/12/09 02:59:37;;;;;;;39.70;24.45;;;;;;;;;;5034684;28;20041;-62
2022/12/09 03:02:18;;;;;;;42.20;25.52;;;;;;;;;;5033114;28;20032;-62
2022/12/09 03:04:47;;;;;;;45.60;24.40;;;;;;;;;;5033030;28;20082;-62
2022/12/09 03:07:16;;;;;;;41.88;24.48;;;;;;;;;;5034378;28;20029;-62
2022/12/09 03:09:44;;;;;;;40.72;24.55;;;;;;;;;;5032949;28;20053;-62
2022/12/09 03:12:10;;;;;;;39.22;23.90;;;;;;;;;;5034397;28;20017;-62
2022/12/09 03:14:55;;;;;;;41.28;23.83;;;;;;;;;;5032813;28;20026;-62
2022/12/09 03:17:23;;;;;;;40.03;25.63;;;;;;;;;;5033079;28;20025;-61
2022/12/09 03:19:54;;;;;;;46.38;27.98;;;;;;;;;;5034164;28;20065;-63
2022/12/09 03:22:22;;;;;;;39.53;23.67;;;;;;;;;;5034252;28;20026;-61
2022/12/09 03:24:48;;;;;;;;;;;;;;;;;;5034386;28;20486;-62
2022/12/09 03:27:18;;;;;;;39.97;24.67;;;;;;;;;;5032793;28;19911;-61
2022/12/09 03:29:44;;;;;;;42.58;26.05;;;;;;;;;;5034157;28;20040;-62
2022/12/09 03:32:11;;;;;;;43.80;26.80;;;;;;;;;;5033161;28;20022;-62
2022/12/09 03:34:39;;;;;;;45.03;28.27;;;;;;;;;;5032679;28;20032;-61
2022/12/09 03:37:07;;;;;;;53.43;32.03;;;;;;;;;;5032679;28;20013;-61
2022/12/09 03:39:34;;;;;;;50.47;30.73;;;;;;;;;;5032496;28;20033;-62
2022/12/09 03:42:03;;;;;;;44.92;26.48;;;;;;;;;;5032745;28;20034;-62
2022/12/09 03:44:44;;;;;;;44.40;27.42;;;;;;;;;;5032272;28;20021;-62
2022/12/09 03:47:10;;;;;;;52.20;30.67;;;;;;;;;;5032471;28;20036;-61
2022/12/09 03:49:37;;;;;;;51.38;29.45;;;;;;;;;;5032378;28;20076;-62
2022/12/09 03:52:13;;;;;;;51.38;30.08;;;;;;;;;;5032160;28;20485;-61
2022/12/09 03:54:43;;;;;;;54.63;30.05;;;;;;;;;;5032106;28;20041;-61
2022/12/09 03:57:11;;;;;;;49.17;29.77;;;;;;;;;;5032101;28;20026;-61
2022/12/09 03:59:37;;;;;;;50.55;29.10;;;;;;;;;;5033403;28;20112;-63
2022/12/09 04:02:05;;;;;;;47.10;29.27;;;;;;;;;;5032046;28;20026;-60
2022/12/09 04:04:31;;;;;;;48.00;31.67;;;;;;;;;;5031946;28;20398;-61
2022/12/09 04:06:58;;;;;;;50.50;27.17;;;;;;;;;;5031953;28;20478;-56
2022/12/09 04:09:24;;;;;;;54.03;28.45;;;;;;;;;;5031574;28;20037;-62
2022/12/09 04:11:50;;;;;;;46.22;28.00;;;;;;;;;;5032064;28;20026;-62
2022/12/09 04:14:16;;;;;;;50.67;28.73;;;;;;;;;;5033077;28;20017;-62
2022/12/09 04:16:42;;;;;;;49.70;29.98;;;;;;;;;;5032030;28;20032;-61
2022/12/09 04:19:08;;;;;;;48.25;29.10;;;;;;;;;;5033206;28;20429;-61
2022/12/09 04:21:34;;;;;;;51.95;28.63;;;;;;;;;;5031645;28;20030;-61
2022/12/09 04:24:00;;;;;;;42.67;27.73;;;;;;;;;;5031407;28;20027;-61
2022/12/09 04:26:26;;;;;;;48.10;27.58;;;;;;;;;;5033322;28;20372;-62
2022/12/09 04:28:52;;;;;;;49.70;28.45;;;;;;;;;;5031430;28;20029;-61
2022/12/09 04:31:19;;;;;;;49.60;29.40;;;;;;;;;;5031035;28;20026;-61
2022/12/09 04:33:45;;;;;;;48.55;28.52;;;;;;;;;;5031256;28;20523;-59
2022/12/09 04:36:12;;;;;;;49.72;28.17;;;;;;;;;;5032756;28;20386;-61
2022/12/09 04:38:39;;;;;;;43.10;26.80;;;;;;;;;;5033165;28;20017;-61
2022/12/09 04:41:05;;;;;;;45.13;27.60;;;;;;;;;;5033007;28;20032;-61
2022/12/09 04:43:31;;;;;;;51.72;29.55;;;;;;;;;;5031688;28;20366;-61
2022/12/09 04:46:01;;;;;;;48.13;28.75;;;;;;;;;;5031779;28;20022;-61
2022/12/09 04:48:27;;;;;;;50.50;31.20;;;;;;;;;;5031118;28;20022;-62
2022/12/09 04:50:53;;;;;;;51.08;29.80;;;;;;;;;;5031138;28;20036;-61
2022/12/09 04:53:19;;;;;;;50.60;31.33;;;;;;;;;;5032093;28;20014;-63
2022/12/09 04:55:45;;;;;;;45.72;28.83;;;;;;;;;;5031140;28;20117;-62
2022/12/09 04:58:11;;;;;;;50.60;29.20;;;;;;;;;;5030835;28;20065;-62
2022/12/09 05:00:37;;;;;;;51.67;29.88;;;;;;;;;;5031375;28;20247;-61
2022/12/09 05:03:04;;;;;;;50.97;28.67;;;;;;;;;;5032278;28;20030;-62
2022/12/09 05:05:30;;;;;;;50.75;30.50;;;;;;;;;;5030905;28;20021;-62
2022/12/09 05:07:56;;;;;;;50.97;31.17;;;;;;;;;;5031945;28;20415;-62
2022/12/09 05:10:22;;;;;;;49.95;30.30;;;;;;;;;;5030786;28;20032;-62
2022/12/09 05:12:48;;;;;;;49.22;30.23;;;;;;;;;;5030551;28;20060;-60
2022/12/09 05:15:14;;;;;;;51.00;32.55;;;;;;;;;;5031805;28;20072;-62
2022/12/09 05:17:40;;;;;;;47.72;30.23;;;;;;;;;;5030553;28;20025;-62
2022/12/09 05:20:07;;;;;;;49.92;31.98;;;;;;;;;;5030656;28;20117;-62
2022/12/09 05:22:33;;;;;;;54.58;33.33;;;;;;;;;;5030586;28;20021;-64
2022/12/09 05:24:59;;;;;;;54.53;32.55;;;;;;;;;;5031631;28;20489;-62
2022/12/09 05:27:25;;;;;;;55.08;32.20;;;;;;;;;;5030488;28;20047;-61
2022/12/09 05:29:51;;;;;;;56.05;31.50;;;;;;;;;;5030578;28;20128;-62
2022/12/09 05:32:17;;;;;;;53.72;33.05;;;;;;;;;;5032310;28;20113;-62
2022/12/09 05:34:43;;;;;;;51.60;31.35;;;;;;;;;;5030814;28;20060;-62
2022/12/09 05:37:13;;;;;;;49.28;31.88;;;;;;;;;;5031517;28;20048;-62
2022/12/09 05:39:39;;;;;;;49.75;30.85;;;;;;;;;;5032076;28;20029;-62
2022/12/09 05:42:05;;;;;;;51.70;30.85;;;;;;;;;;5033055;28;20104;-62
2022/12/09 05:44:31;;;;;;;52.70;32.80;;;;;;;;;;5036090;28;20363;-62
2022/12/09 05:46:57;;;;;;;53.50;33.28;;;;;;;;;;5034629;28;20040;-62
2022/12/09 05:49:23;;;;;;;53.78;33.17;;;;;;;;;;5035575;28;20025;-62
2022/12/09 05:51:49;;;;;;;53.65;33.58;;;;;;;;;;5035779;28;20076;-62
2022/12/09 05:54:15;;;;;;;56.88;34.30;;;;;;;;;;5034189;28;20022;-63
2022/12/09 05:56:41;;;;;;;57.35;35.47;;;;;;;;;;5056311;23;20026;-65
2022/12/09 05:59:07;;;;;;;61.03;37.00;;;;;;;;;;5009940;28;20042;-65
2022/12/09 06:01:33;;;;;;;72.07;38.17;;;;;;;;;;5010113;28;20050;-66
2022/12/09 06:03:59;;;;;;;68.38;37.78;;;;;;;;;;4994435;28;20026;-66
2022/12/09 06:06:26;;;;;;;80.70;40.25;;;;;;;;;;4994908;28;20058;-66
2022/12/09 06:08:55;;;;;;;91.38;44.08;;;;;;;;;;4994819;28;20026;-65
2022/12/09 06:11:21;;;;;;;;;;;;;;;;;;4993802;28;20121;-64
2022/12/09 06:13:47;;;;;;;96.38;39.88;;;;;;;;;;4994656;28;20399;-66
2022/12/09 06:16:13;;;;;;;117.03;40.42;;;;;;;;;;4994727;28;20375;-66
2022/12/09 06:18:39;;;;;;;89.07;40.78;;;;;;;;;;4993368;28;20053;-65
2022/12/09 06:21:06;;;;;;;80.30;40.25;;;;;;;;;;4993108;28;20372;-66
2022/12/09 06:23:34;;;;;;;93.65;41.08;;;;;;;;;;4994264;28;20026;-64
2022/12/09 06:26:00;;;;;;;111.43;44.80;;;;;;;;;;4993823;28;20030;-67
2022/12/09 06:28:26;;;;;;;107.55;41.83;;;;;;;;;;4993047;28;20265;-66
2022/12/09 06:30:52;;;;;;;112.00;46.20;;;;;;;;;;4995242;28;20030;-64
2022/12/09 06:33:18;;;;;;;83.20;40.72;;;;;;;;;;4994457;28;20378;-66
2022/12/09 06:35:44;;;;;;;69.75;38.88;;;;;;;;;;4993501;28;20023;-66
2022/12/09 06:38:10;;;;;;;68.65;39.20;;;;;;;;;;4994957;28;20367;-64
2022/12/09 06:40:40;;;;;;;76.32;41.75;;;;;;;;;;4995172;28;20025;-67
2022/12/09 06:43:06;;;;;;;71.72;40.47;;;;;;;;;;4994944;28;20023;-62
2022/12/09 06:45:32;;;;;;;82.07;40.30;;;;;;;;;;4993257;28;20030;-65
2022/12/09 06:47:58;;;;;;;67.20;40.88;;;;;;;;;;4994324;28;20089;-65
2022/12/09 06:50:24;;;;;;;72.43;41.72;;;;;;;;;;4994281;28;20034;-65
2022/12/09 06:52:50;;;;;;;70.93;43.58;;;;;;;;;;4992533;28;20161;-66
2022/12/09 06:55:16;;;;;;;71.35;39.25;;;;;;;;;;4994180;28;20072;-65
2022/12/09 06:57:42;;;;;;;72.20;40.67;;;;;;;;;;4991857;28;20117;-66
2022/12/09 07:00:08;;;;;;;60.20;37.22;;;;;;;;;;4993203;28;20040;-66
2022/12/09 07:02:34;;;;;;;57.33;37.38;;;;;;;;;;4994072;28;20030;-67
2022/12/09 07:05:00;;;;;;;58.75;36.25;;;;;;;;;;4992829;28;20470;-68
2022/12/09 07:07:26;;;;;;;62.35;37.80;;;;;;;;;;4992817;28;20527;-65
2022/12/09 07:09:53;;;;;;;63.78;39.05;;;;;;;;;;4993342;28;20648;-66
2022/12/09 07:12:19;;;;;;;65.20;38.67;;;;;;;;;;4992745;28;20037;-67
2022/12/09 07:14:45;;;;;;;64.57;40.60;;;;;;;;;;4992296;28;20045;-65
2022/12/09 07:17:18;;;;;;;65.57;39.00;;;;;;;;;;4992630;28;20026;-67
2022/12/09 07:19:44;;;;;;;58.90;38.15;;;;;;;;;;4993901;28;20023;-66
2022/12/09 07:22:10;;;;;;;54.40;35.47;;;;;;;;;;4992838;28;20372;-65
2022/12/09 07:24:37;;;;;;;55.42;36.42;;;;;;;;;;4993624;28;20033;-66
2022/12/09 07:27:04;;;;;;;59.30;35.47;;;;;;;;;;4994454;28;20377;-67
2022/12/09 07:29:31;;;;;;;55.75;36.80;;;;;;;;;;4994087;28;20084;-67
2022/12/09 07:31:57;;;;;;;65.00;41.10;;;;;;;;;;4993887;28;20141;-66
2022/12/09 07:34:23;;;;;;;60.60;38.55;;;;;;;;;;4991854;28;20049;-66
2022/12/09 07:36:49;;;;;;;57.78;38.85;;;;;;;;;;4991904;28;20034;-67
2022/12/09 07:39:16;;;;;;;58.65;39.30;;;;;;;;;;4991738;28;20108;-66
2022/12/09 07:41:43;;;;;;;57.60;37.00;;;;;;;;;;4993425;28;20383;-68
2022/12/09 07:44:09;;;;;;;60.03;39.67;;;;;;;;;;4991598;28;20092;-65
2022/12/09 07:46:36;;;;;;;62.92;39.30;;;;;;;;;;4993024;28;20042;-64
2022/12/09 07:49:03;;;;;;;60.03;37.83;;;;;;;;;;4991457;28;20026;-64
2022/12/09 07:51:29;;;;;;;63.13;40.35;;;;;;;;;;4991511;28;20080;-64
2022/12/09 07:53:55;;;;;;;54.63;37.20;;;;;;;;;;4991834;28;20121;-59
2022/12/09 07:56:22;;;;;;;59.08;36.55;;;;;;;;;;4991691;28;20034;-65
2022/12/09 07:58:51;;;;;;;58.97;36.88;;;;;;;;;;4992208;28;20132;-63
2022/12/09 08:01:19;;;;;;;56.22;38.28;;;;;;;;;;4992976;28;20483;-62
2022/12/09 08:03:46;;;;;;;58.92;38.95;;;;;;;;;;4992662;28;20113;-63
2022/12/09 08:06:13;;;;;;;58.97;38.20;;;;;;;;;;4991712;28;20506;-63
2022/12/09 08:08:39;;;;;;;56.70;37.20;;;;;;;;;;4991539;28;20019;-63
2022/12/09 08:11:12;;;;;;;61.60;39.03;;;;;;;;;;4992929;28;20015;-64
2022/12/09 08:13:40;;;;;;;63.58;38.40;;;;;;;;;;4992485;28;20019;-64
2022/12/09 08:16:08;;;;;;;54.22;37.33;;;;;;;;;;4992605;28;20018;-64
2022/12/09 08:18:35;;;;;;;57.57;36.93;;;;;;;;;;4992595;28;20033;-63
2022/12/09 08:21:07;;;;;;;61.75;38.17;;;;;;;;;;4992600;28;20451;-68
2022/12/09 08:23:33;;;;;;;64.90;38.72;;;;;;;;;;4991396;28;20021;-66
2022/12/09 08:26:00;;;;;;;57.47;38.88;;;;;;;;;;4992099;28;20018;-67
2022/12/09 08:28:26;;;;;;;58.20;38.53;;;;;;;;;;4992373;28;20050;-68
2022/12/09 08:30:52;;;;;;;68.95;41.47;;;;;;;;;;4992350;28;20558;-68
2022/12/09 08:33:18;;;;;;;61.97;39.10;;;;;;;;;;4991784;28;20021;-68
2022/12/09 08:35:44;;;;;;;59.78;36.38;;;;;;;;;;4991681;28;20026;-68
2022/12/09 08:38:11;;;;;;;62.25;38.95;;;;;;;;;;4992518;28;20019;-69
2022/12/09 08:40:37;;;;;;;61.53;37.67;;;;;;;;;;4992094;28;20022;-69
2022/12/09 08:43:04;;;;;;;61.03;37.25;;;;;;;;;;4992076;28;20022;-68
2022/12/09 08:45:33;;;;;;;61.17;37.95;;;;;;;;;;4992158;28;20118;-68
2022/12/09 08:47:59;;;;;;;61.53;39.03;;;;;;;;;;4992211;28;20105;-69
2022/12/09 08:50:25;;;;;;;56.33;38.05;;;;;;;;;;4990840;28;20121;-68
2022/12/09 08:52:51;;;;;;;59.50;36.78;;;;;;;;;;4991178;28;20073;-68
2022/12/09 08:55:17;;;;;;;53.85;35.47;;;;;;;;;;4992789;28;20015;-65
2022/12/09 08:57:43;;;;;;;51.70;34.67;;;;;;;;;;4991460;28;20129;-68
2022/12/09 09:00:10;;;;;;;55.60;36.67;;;;;;;;;;4991735;28;20629;-67
2022/12/09 09:02:36;;;;;;;53.63;36.15;;;;;;;;;;4991700;28;20057;-68
2022/12/09 09:05:02;;;;;;;56.45;35.70;;;;;;;;;;4991511;28;20082;-67
2022/12/09 09:07:29;;;;;;;54.50;35.65;;;;;;;;;;4990233;28;20026;-68
2022/12/09 09:09:55;;;;;;;48.37;32.83;;;;;;;;;;4992469;28;20069;-66
2022/12/09 09:12:21;;;;;;;52.75;35.15;;;;;;;;;;4990433;28;20026;-67
2022/12/09 09:14:47;;;;;;;52.72;35.55;;;;;;;;;;4991452;28;20374;-67
2022/12/09 09:17:13;;;;;;;54.70;34.78;;;;;;;;;;4991288;28;20023;-68
2022/12/09 09:19:39;;;;;;;50.70;33.22;;;;;;;;;;4992081;28;20018;-67
2022/12/09 09:22:05;;;;;;;46.63;32.92;;;;;;;;;;4991736;28;20022;-66
2022/12/09 09:24:31;;;;;;;52.00;34.67;;;;;;;;;;4991156;28;20032;-67
2022/12/09 09:26:57;;;;;;;49.08;33.17;;;;;;;;;;4990075;28;20034;-67
2022/12/09 09:29:23;;;;;;;52.33;34.05;;;;;;;;;;4990884;28;20117;-67
2022/12/09 09:31:52;;;;;;;47.20;32.53;;;;;;;;;;4990113;28;20068;-68
2022/12/09 09:34:19;;;;;;;49.63;31.45;;;;;;;;;;4991761;28;20015;-68
2022/12/09 09:36:45;;;;;;;54.05;33.50;;;;;;;;;;4990268;28;20023;-68
2022/12/09 09:39:11;;;;;;;48.22;31.73;;;;;;;;;;4989771;28;20038;-68
2022/12/09 09:41:37;;;;;;;46.42;32.83;;;;;;;;;;4990446;28;20557;-68
2022/12/09 09:44:09;;;;;;;50.85;32.28;;;;;;;;;;4991356;28;20434;-68
2022/12/09 09:46:39;;;;;;;48.53;32.15;;;;;;;;;;4991067;28;20101;-68
2022/12/09 09:49:07;;;;;;;48.53;32.85;;;;;;;;;;4990735;28;20324;-67
2022/12/09 09:51:34;;;;;;;48.95;33.25;;;;;;;;;;4992766;28;20015;-68
2022/12/09 09:54:00;;;;;;;49.33;32.70;;;;;;;;;;4992103;28;20054;-68
2022/12/09 09:56:28;;;;;;;43.92;31.73;;;;;;;;;;4994011;28;20030;-67
2022/12/09 09:59:18;;;;;;;48.42;31.23;;;;;;;;;;4993437;28;20029;-67
2022/12/09 10:01:49;;;;;;;51.72;33.30;;;;;;;;;;4991957;28;20121;-67
2022/12/09 10:04:22;;;;;;;51.80;30.42;;;;;;;;;;4993387;28;20018;-67
2022/12/09 10:06:51;;;;;;;50.63;35.38;;;;;;;;;;4993198;28;20022;-68
2022/12/09 10:09:21;;;;;;;49.85;33.03;;;;;;;;;;4991468;28;20029;-67
2022/12/09 10:11:50;;;;;;;47.65;31.95;;;;;;;;;;4991342;28;20011;-66
2022/12/09 10:14:19;;;;;;;57.83;35.13;;;;;;;;;;4990534;28;20031;-68
2022/12/09 10:16:45;;;;;;;;;;;;;;;;;;4992323;28;20026;-66
2022/12/09 10:19:29;;;;;;;54.58;33.90;;;;;;;;;;4991122;28;19905;-66
2022/12/09 10:21:56;;;;;;;57.20;34.67;;;;;;;;;;4990265;28;20029;-67
2022/12/09 10:24:22;;;;;;;54.17;35.63;;;;;;;;;;4991312;28;20117;-64
2022/12/09 10:27:08;;;;;;;49.88;34.33;;;;;;;;;;4991663;28;20046;-67
2022/12/09 10:29:41;;;;;;;50.60;32.50;;;;;;;;;;4993991;28;20026;-65
2022/12/09 10:32:13;;;;;;;51.25;33.22;;;;;;;;;;4994959;28;20026;-67
2022/12/09 10:34:39;;;;;;;64.25;37.55;;;;;;;;;;4995256;28;20065;-66
2022/12/09 10:37:05;;;;;;;54.83;35.33;;;;;;;;;;4994693;28;20023;-65
2022/12/09 10:39:33;;;;;;;60.45;38.08;;;;;;;;;;4995334;28;20053;-67
2022/12/09 10:44:44;;;;;;;64.93;38.97;;;;;;;;;;4994942;28;20093;-66
2022/12/09 10:47:24;;;;;;;69.90;41.75;;;;;;;;;;4995017;28;20049;-67
2022/12/09 10:49:51;;;;;;;70.47;42.10;;;;;;;;;;4995069;28;20026;-67
2022/12/09 10:52:25;;;;;;;74.03;44.13;;;;;;;;;;4995249;28;20066;-66
2022/12/09 10:54:51;;;;;;;68.93;42.30;;;;;;;;;;4994821;28;20045;-67
2022/12/09 10:57:17;;;;;;;59.58;39.08;;;;;;;;;;4993218;28;20034;-65
2022/12/09 10:59:57;;;;;;;65.05;40.03;;;;;;;;;;4994711;28;20064;-67
2022/12/09 11:02:23;;;;;;;62.70;39.78;;;;;;;;;;4994952;28;20033;-66
2022/12/09 11:04:50;;;;;;;58.85;37.35;;;;;;;;;;4993056;28;20018;-66
2022/12/09 11:07:17;;;;;;;60.08;37.63;;;;;;;;;;4994809;28;20033;-66
2022/12/09 11:09:45;;;;;;;59.35;36.92;;;;;;;;;;4992993;28;20049;-67
2022/12/09 11:12:17;;;;;;;62.33;37.13;;;;;;;;;;4994658;28;20022;-67
2022/12/09 11:14:51;;;;;;;60.30;36.03;;;;;;;;;;4994154;28;20269;-67
2022/12/09 11:17:18;;;;;;;52.85;35.00;;;;;;;;;;4994416;28;20049;-68
2022/12/09 11:19:47;;;;;;;56.42;34.90;;;;;;;;;;4994308;28;20022;-67
2022/12/09 11:22:27;;;;;;;56.30;33.50;;;;;;;;;;4994474;28;20475;-68
2022/12/09 11:24:54;;;;;;;56.75;34.85;;;;;;;;;;4994126;28;20049;-67
2022/12/09 11:27:23;;;;;;;56.30;35.38;;;;;;;;;;4994543;28;20442;-67
2022/12/09 11:30:03;;;;;;;55.25;35.78;;;;;;;;;;4992026;28;20058;-67
2022/12/09 11:32:29;;;;;;;53.38;33.55;;;;;;;;;;4993038;28;20097;-66
2022/12/09 11:34:55;;;;;;;57.15;35.70;;;;;;;;;;4992015;28;20069;-66
2022/12/09 11:37:21;;;;;;;55.15;34.65;;;;;;;;;;4992953;28;20023;-65
2022/12/09 11:39:49;;;;;;;60.22;35.67;;;;;;;;;;4993942;28;20454;-66
2022/12/09 11:42:17;;;;;;;59.10;36.22;;;;;;;;;;4994123;28;20487;-67
2022/12/09 11:45:03;;;;;;;57.10;35.50;;;;;;;;;;4992688;28;20089;-68
2022/12/09 11:47:29;;;;;;;60.03;34.95;;;;;;;;;;4993386;28;20096;-66
2022/12/09 11:49:58;;;;;;;61.80;34.50;;;;;;;;;;4993046;28;20022;-67
2022/12/09 11:52:27;;;;;;;56.58;35.88;;;;;;;;;;4993993;28;20057;-67
2022/12/09 11:54:53;;;;;;;59.05;35.08;;;;;;;;;;4992386;28;20018;-68
2022/12/09 11:57:34;;;;;;;62.40;36.72;;;;;;;;;;5010289;23;20042;-60
2022/12/09 12:00:02;;;;;;;59.63;34.28;;;;;;;;;;5033838;28;20396;-63
2022/12/09 12:02:35;;;;;;;62.13;37.00;;;;;;;;;;5032362;28;20029;-63
2022/12/09 12:05:01;;;;;;;67.47;37.83;;;;;;;;;;5031609;28;20029;-65
2022/12/09 12:07:27;;;;;;;57.42;35.92;;;;;;;;;;5031933;28;20060;-65
2022/12/09 12:09:54;;;;;;;55.22;35.45;;;;;;;;;;5033132;28;20029;-63
2022/12/09 12:12:21;;;;;;;62.33;36.83;;;;;;;;;;5030997;28;20056;-63
2022/12/09 12:14:47;;;;;;;61.72;36.83;;;;;;;;;;5032524;28;20037;-63
2022/12/09 12:17:13;;;;;;;60.13;34.75;;;;;;;;;;5031129;28;20175;-64
2022/12/09 12:19:40;;;;;;;52.80;33.53;;;;;;;;;;5030874;28;20021;-64
2022/12/09 12:22:32;;;;;;;52.65;33.08;;;;;;;;;;5031242;28;20512;-64
2022/12/09 12:25:19;;;;;;;52.03;32.92;;;;;;;;;;5000147;28;20044;-65
2022/12/09 12:27:54;;;;;;;50.38;31.48;;;;;;;;;;5031303;28;20405;-63
2022/12/09 12:30:22;;;;;;;52.83;34.22;;;;;;;;;;5031576;28;20022;-62
2022/12/09 12:32:58;;;;;;;51.45;34.92;;;;;;;;;;5030797;28;20055;-62
2022/12/09 12:35:30;;;;;;;53.65;32.28;;;;;;;;;;5031945;28;20393;-65
2022/12/09 12:38:15;;;;;;;59.22;34.22;;;;;;;;;;5030467;28;20049;-64
2022/12/09 12:41:00;;;;;;;50.35;30.23;;;;;;;;;;5030264;28;20032;-65
2022/12/09 12:46:29;;;;;;;51.75;32.78;;;;;;;;;;5031826;28;20099;-63
2022/12/09 12:49:01;;;;;;;53.75;33.65;;;;;;;;;;5030207;28;20033;-63
2022/12/09 12:51:32;;;;;;;53.30;32.53;;;;;;;;;;5030836;28;20021;-62
2022/12/09 12:54:19;;;;;;;52.38;32.05;;;;;;;;;;5030440;28;20489;-64
2022/12/09 12:56:45;;;;;;;50.90;30.73;;;;;;;;;;5001299;28;20040;-63
2022/12/09 12:59:11;;;;;;;47.78;30.95;;;;;;;;;;5030403;28;20044;-64
2022/12/09 13:01:54;;;;;;;50.00;29.85;;;;;;;;;;5031941;28;20237;-65
2022/12/09 13:04:20;;;;;;;49.78;29.50;;;;;;;;;;5030424;28;20423;-61
2022/12/09 13:06:50;;;;;;;47.25;31.25;;;;;;;;;;5030447;28;20135;-64
2022/12/09 13:09:40;;;;;;;54.20;33.92;;;;;;;;;;5030425;28;20424;-64
2022/12/09 13:12:52;;;;;;;52.22;30.95;;;;;;;;;;5023480;28;20040;-62
2022/12/09 13:15:15;;;;;;;48.60;30.52;;;;;;;;;;5031040;28;20032;-64
2022/12/09 13:17:43;;;;;;;49.00;28.45;;;;;;;;;;5029780;28;20031;-64
2022/12/09 13:20:19;;;;;;;52.33;30.58;;;;;;;;;;5031243;28;20021;-62
2022/12/09 13:22:54;;;;;;;50.50;28.85;;;;;;;;;;5029333;28;20034;-62
2022/12/09 13:25:20;;;;;;;47.70;28.83;;;;;;;;;;5030660;28;20021;-61
2022/12/09 13:28:14;;;;;;;47.05;28.27;;;;;;;;;;5031261;28;20045;-56
2022/12/09 13:30:44;;;;;;;45.33;28.40;;;;;;;;;;5026442;28;20083;-58
2022/12/09 13:33:14;;;;;;;46.05;27.85;;;;;;;;;;5030301;28;20018;-57
2022/12/09 13:35:50;;;;;;;46.10;28.52;;;;;;;;;;5030448;28;20099;-63
2022/12/09 13:38:24;;;;;;;46.53;28.42;;;;;;;;;;5029172;28;20017;-62
2022/12/09 13:40:50;;;;;;;48.40;29.95;;;;;;;;;;5029701;28;20506;-62
2022/12/09 13:43:26;;;;;;;50.70;29.02;;;;;;;;;;5031245;28;20025;-60
2022/12/09 13:45:59;;;;;;;47.92;28.15;;;;;;;;;;5029827;28;20018;-62
2022/12/09 13:48:28;;;;;;;52.60;30.05;;;;;;;;;;5031398;28;20465;-63
2022/12/09 13:50:58;;;;;;;53.45;31.42;;;;;;;;;;5030564;28;20025;-60
2022/12/09 13:53:27;;;;;;;54.65;32.47;;;;;;;;;;5030664;28;20425;-64
2022/12/09 13:56:02;;;;;;;53.53;31.08;;;;;;;;;;5029780;28;20478;-63
2022/12/09 13:58:37;;;;;;;49.60;28.38;;;;;;;;;;5028879;28;20071;-63
2022/12/09 14:01:13;;;;;;;45.97;26.90;;;;;;;;;;5029142;28;20428;-65
2022/12/09 14:03:59;;;;;;;50.10;29.05;;;;;;;;;;5031744;28;20025;-65
2022/12/09 14:06:39;;;;;;;47.65;29.02;;;;;;;;;;5004390;28;20034;-64
2022/12/09 14:09:24;;;;;;;52.58;30.35;;;;;;;;;;5034889;28;20053;-55
2022/12/09 14:11:54;;;;;;;47.75;27.67;;;;;;;;;;5034908;28;20443;-62
2022/12/09 14:14:23;;;;;;;53.15;29.45;;;;;;;;;;5032520;28;20021;-58
2022/12/09 14:16:52;;;;;;;53.40;31.63;;;;;;;;;;5033815;28;20021;-65
2022/12/09 14:19:24;;;;;;;52.60;30.52;;;;;;;;;;5033641;28;20025;-64
2022/12/09 14:22:15;;;;;;;49.33;28.67;;;;;;;;;;5032770;28;20124;-62
2022/12/09 14:24:42;;;;;;;50.88;28.80;;;;;;;;;;5033701;28;20105;-63
2022/12/09 14:27:11;;;;;;;50.75;29.33;;;;;;;;;;5032906;28;20045;-64
2022/12/09 14:29:36;;;;;;;;;;;;;;;;;;5035344;28;20025;-64
2022/12/09 14:32:04;;;;;;;55.33;29.35;;;;;;;;;;5034102;28;19989;-65
2022/12/09 14:34:30;;;;;;;49.35;29.52;;;;;;;;;;5034057;28;20013;-61